Time;durP1;ratioP1;P1;durP2;ratioP2;P2;SDS_P1;SDS_P2;PMS_P1;PMS_P2;Temp;Humidity;BMP_temperature;BMP_pressure;BME280_temperature;BME280_humidity;BME280_pressure;Samples;Min_cycle;Max_cycle;Signal;HPM_P1;HPM_P2
2021/07/21 00:02:02;;;;;;;6.73;5.30;;;17.40;99.90;;;;;;6187997;23;20775;-50
2021/07/21 00:04:29;;;;;;;7.03;5.20;;;17.40;99.90;;;;;;6189349;23;20563;-48
2021/07/21 00:10:05;;;;;;;7.33;5.60;;;17.30;99.90;;;;;;6187038;23;20407;-46
2021/07/21 00:15:25;;;;;;;7.80;5.57;;;17.30;99.90;;;;;;6174033;23;20508;-48
2021/07/21 00:17:59;;;;;;;8.37;5.37;;;17.30;99.90;;;;;;6189647;23;20508;-45
2021/07/21 00:20:26;;;;;;;8.30;6.07;;;17.30;99.90;;;;;;6189770;23;20389;-48
2021/07/21 00:22:54;;;;;;;7.43;5.17;;;17.30;99.90;;;;;;6189852;23;20401;-47
2021/07/21 00:25:22;;;;;;;7.20;5.20;;;17.30;99.90;;;;;;6189600;23;20445;-48
2021/07/21 00:27:49;;;;;;;7.37;6.07;;;17.30;99.90;;;;;;6189504;23;20467;-48
2021/07/21 00:30:17;;;;;;;6.70;5.30;;;17.30;99.90;;;;;;6189399;23;20741;-47
2021/07/21 00:32:44;;;;;;;7.17;5.93;;;17.20;99.90;;;;;;6188460;23;20408;-47
2021/07/21 00:35:14;;;;;;;10.87;5.80;;;17.20;99.90;;;;;;6189832;23;20413;-46
2021/07/21 00:37:41;;;;;;;6.60;5.50;;;17.20;99.90;;;;;;6190168;23;20468;-49
2021/07/21 00:40:10;;;;;;;9.47;5.10;;;17.20;99.90;;;;;;6189956;23;20463;-45
2021/07/21 00:42:38;;;;;;;10.10;6.03;;;17.20;99.90;;;;;;6190091;23;20499;-46
2021/07/21 00:45:08;;;;;;;8.17;5.50;;;17.10;99.90;;;;;;6189947;23;20436;-44
2021/07/21 00:47:35;;;;;;;7.77;6.50;;;17.10;99.90;;;;;;6189839;23;20404;-49
2021/07/21 00:50:01;;;;;;;6.27;5.23;;;17.10;99.90;;;;;;6189041;23;20425;-46
2021/07/21 00:52:28;;;;;;;9.00;6.03;;;17.10;99.90;;;;;;6188980;23;20404;-45
2021/07/21 00:54:55;;;;;;;7.30;6.27;;;17.10;99.90;;;;;;6189274;23;20428;-49
2021/07/21 00:57:22;;;;;;;7.20;6.20;;;17.10;99.90;;;;;;6189819;23;20697;-49
2021/07/21 00:59:51;;;;;;;9.57;6.47;;;17.10;99.90;;;;;;6189456;23;20463;-47
2021/07/21 01:02:17;;;;;;;6.33;5.23;;;17.10;99.90;;;;;;6189525;23;20484;-48
2021/07/21 01:04:44;;;;;;;10.13;6.30;;;17.00;99.90;;;;;;6189658;23;20941;-45
2021/07/21 01:07:11;;;;;;;10.03;6.60;;;17.00;99.90;;;;;;6188388;23;20490;-45
2021/07/21 01:09:39;;;;;;;6.93;5.70;;;17.00;99.90;;;;;;6189172;23;20412;-44
2021/07/21 01:12:15;;;;;;;7.30;6.03;;;16.90;99.90;;;;;;6189323;23;20868;-49
2021/07/21 01:14:54;;;;;;;6.73;5.60;;;16.90;99.90;;;;;;6189191;23;20486;-49
2021/07/21 01:17:26;;;;;;;9.90;7.47;;;16.90;99.90;;;;;;6190014;23;20397;-50
2021/07/21 01:20:29;;;;;;;8.53;5.77;;;16.90;99.90;;;;;;6190073;23;20389;-48
2021/07/21 01:23:06;;;;;;;10.23;6.93;;;16.80;99.90;;;;;;6190327;23;20478;-50
2021/07/21 01:25:41;;;;;;;11.87;7.30;;;16.80;99.90;;;;;;6200711;23;20412;-47
2021/07/21 01:28:09;;;;;;;9.43;6.27;;;16.80;99.90;;;;;;6213826;23;20389;-49
2021/07/21 01:30:39;;;;;;;12.13;7.13;;;16.90;99.90;;;;;;6206608;23;20499;-49
2021/07/21 01:33:10;;;;;;;10.30;6.83;;;16.80;99.90;;;;;;6189446;23;20701;-45
2021/07/21 01:35:42;;;;;;;8.13;6.23;;;16.80;99.90;;;;;;6189377;23;20385;-49
2021/07/21 01:38:15;;;;;;;8.73;6.50;;;16.80;99.90;;;;;;6189350;23;20459;-44
2021/07/21 01:40:44;;;;;;;9.53;6.43;;;16.80;99.90;;;;;;6189353;23;20401;-47
2021/07/21 01:43:20;;;;;;;10.23;6.50;;;16.70;99.90;;;;;;6199720;23;20429;-51
2021/07/21 01:45:48;;;;;;;9.00;6.60;;;16.70;99.90;;;;;;6202108;23;20471;-57
2021/07/21 01:48:16;;;;;;;8.77;7.17;;;16.80;99.90;;;;;;6213797;23;20389;-48
2021/07/21 01:50:44;;;;;;;10.87;6.93;;;16.80;99.90;;;;;;6214238;23;20389;-50
2021/07/21 01:53:12;;;;;;;8.27;6.10;;;16.70;99.90;;;;;;6213811;23;20746;-44
2021/07/21 01:55:39;;;;;;;9.10;6.70;;;16.70;99.90;;;;;;6213340;23;20425;-55
2021/07/21 01:58:07;;;;;;;8.93;6.70;;;16.70;99.90;;;;;;6209571;23;20409;-47
2021/07/21 02:00:37;;;;;;;10.77;6.47;;;16.70;99.90;;;;;;6196786;23;20396;-49
2021/07/21 02:03:04;;;;;;;9.80;6.93;;;16.70;99.90;;;;;;6211525;23;20397;-46
2021/07/21 02:05:32;;;;;;;9.77;6.70;;;16.60;99.90;;;;;;6193542;23;20440;-48
2021/07/21 02:08:01;;;;;;;12.13;6.73;;;16.60;99.90;;;;;;6197951;23;20404;-44
2021/07/21 02:10:29;;;;;;;10.07;6.67;;;16.70;99.90;;;;;;6189858;23;20409;-50
2021/07/21 02:12:59;;;;;;;11.63;7.37;;;16.60;99.90;;;;;;6189245;23;20408;-50
2021/07/21 02:15:26;;;;;;;9.43;6.73;;;16.60;99.90;;;;;;6189142;23;20459;-48
2021/07/21 02:17:55;;;;;;;9.23;6.43;;;16.60;99.90;;;;;;6189021;23;20400;-47
2021/07/21 02:20:22;;;;;;;12.00;7.20;;;16.60;99.90;;;;;;6188710;23;20689;-45
2021/07/21 02:22:49;;;;;;;9.40;7.10;;;16.60;99.90;;;;;;6188983;23;20412;-52
2021/07/21 02:25:17;;;;;;;11.93;6.80;;;16.60;99.90;;;;;;6188789;23;20437;-48
2021/07/21 02:27:45;;;;;;;8.33;7.17;;;16.60;99.90;;;;;;6188791;23;20421;-47
2021/07/21 02:30:13;;;;;;;8.50;5.80;;;16.60;99.90;;;;;;6188606;23;20495;-48
2021/07/21 02:32:47;;;;;;;9.20;6.57;;;16.70;99.90;;;;;;6188615;23;20409;-50
2021/07/21 02:35:19;;;;;;;12.47;6.40;;;16.60;99.90;;;;;;6188917;23;20405;-50
2021/07/21 02:37:46;;;;;;;9.90;6.43;;;16.60;99.90;;;;;;6188937;23;20408;-47
2021/07/21 02:40:14;;;;;;;9.30;6.70;;;16.70;99.90;;;;;;6188594;23;20786;-46
2021/07/21 02:42:41;;;;;;;12.57;6.93;;;16.70;99.90;;;;;;6190616;23;20405;-49
2021/07/21 02:45:08;;;;;;;10.23;6.47;;;16.60;99.90;;;;;;6188571;23;20440;-45
2021/07/21 02:47:35;;;;;;;11.57;8.27;;;16.60;99.90;;;;;;6188683;23;20405;-49
2021/07/21 02:50:02;;;;;;;9.27;6.97;;;16.60;99.90;;;;;;6188620;23;20413;-50
2021/07/21 02:52:33;;;;;;;9.10;6.87;;;16.60;99.90;;;;;;6188426;23;20941;-49
2021/07/21 02:55:07;;;;;;;9.20;6.40;;;16.70;99.90;;;;;;6189217;23;20393;-49
2021/07/21 02:57:39;;;;;;;10.20;6.83;;;16.70;99.90;;;;;;6189385;23;20411;-44
2021/07/21 03:00:11;;;;;;;10.93;7.67;;;16.70;99.90;;;;;;6189855;23;20433;-48
2021/07/21 03:02:39;;;;;;;10.43;6.23;;;16.80;99.90;;;;;;6190454;23;20389;-48
2021/07/21 03:05:09;;;;;;;12.03;7.50;;;16.80;99.90;;;;;;6188025;23;20440;-48
2021/07/21 03:07:40;;;;;;;7.83;6.83;;;16.80;99.90;;;;;;6188281;23;20471;-46
2021/07/21 03:10:07;;;;;;;11.20;7.03;;;16.90;99.90;;;;;;6187999;23;20721;-46
2021/07/21 03:12:38;;;;;;;9.70;6.90;;;16.90;99.90;;;;;;6188985;23;20475;-43
2021/07/21 03:15:06;;;;;;;9.50;7.00;;;17.00;99.90;;;;;;6186574;23;20492;-46
2021/07/21 03:17:36;;;;;;;10.23;6.53;;;16.90;99.90;;;;;;6186982;23;20456;-52
2021/07/21 03:20:05;;;;;;;9.40;7.07;;;17.00;99.90;;;;;;6186735;23;20405;-48
2021/07/21 03:22:35;;;;;;;12.70;8.97;;;17.00;99.90;;;;;;6186531;23;20467;-50
2021/07/21 03:25:04;;;;;;;10.30;8.50;;;17.10;99.90;;;;;;6186491;23;20440;-46
2021/07/21 03:27:32;;;;;;;11.23;7.60;;;17.20;99.90;;;;;;6186855;23;20412;-51
2021/07/21 03:30:01;;;;;;;12.00;6.80;;;17.20;99.90;;;;;;6190394;23;20789;-45
2021/07/21 03:32:28;;;;;;;8.97;7.00;;;17.20;99.90;;;;;;6186391;23;20463;-50
2021/07/21 03:34:56;;;;;;;10.13;6.80;;;17.20;99.90;;;;;;6187257;23;20412;-46
2021/07/21 03:37:25;;;;;;;15.20;7.47;;;17.20;99.90;;;;;;6186192;23;20412;-45
2021/07/21 03:39:55;;;;;;;8.13;6.00;;;17.20;99.90;;;;;;6186622;23;20708;-45
2021/07/21 03:42:24;;;;;;;13.20;7.67;;;17.30;99.90;;;;;;6186928;23;20444;-46
2021/07/21 03:44:52;;;;;;;10.57;7.40;;;17.30;99.90;;;;;;6186459;23;20900;-47
2021/07/21 03:47:19;;;;;;;7.37;5.70;;;17.30;99.90;;;;;;6186407;23;20409;-45
2021/07/21 03:49:47;;;;;;;10.70;7.40;;;17.30;99.90;;;;;;6188197;23;20408;-45
2021/07/21 03:52:14;;;;;;;13.30;7.37;;;17.30;99.90;;;;;;6186244;23;20413;-46
2021/07/21 03:54:41;;;;;;;13.17;7.77;;;17.30;99.90;;;;;;6187544;23;20691;-45
2021/07/21 03:57:09;;;;;;;10.97;7.50;;;17.40;99.90;;;;;;6186881;23;20408;-48
2021/07/21 03:59:38;;;;;;;9.20;7.27;;;17.50;99.90;;;;;;6186207;23;20490;-51
2021/07/21 04:02:07;;;;;;;11.63;7.60;;;17.50;99.90;;;;;;6202270;23;20748;-46
2021/07/21 04:04:35;;;;;;;12.10;8.10;;;17.50;99.90;;;;;;6186218;23;20441;-48
2021/07/21 04:07:03;;;;;;;9.90;7.10;;;17.50;99.90;;;;;;6185696;23;20409;-46
2021/07/21 04:09:34;;;;;;;12.93;7.63;;;17.50;99.90;;;;;;6185904;23;20482;-45
2021/07/21 04:12:05;;;;;;;11.77;7.87;;;17.50;99.90;;;;;;6186186;23;20390;-48
2021/07/21 04:14:32;;;;;;;12.97;6.60;;;17.60;99.90;;;;;;6186715;23;20447;-47
2021/07/21 04:17:02;;;;;;;11.20;6.80;;;17.60;99.90;;;;;;6185938;23;20417;-49
2021/07/21 04:19:30;;;;;;;12.83;8.87;;;17.70;99.90;;;;;;6185954;23;20409;-47
2021/07/21 04:21:57;;;;;;;17.47;6.97;;;17.70;99.90;;;;;;6186555;23;20760;-49
2021/07/21 04:24:25;;;;;;;11.30;6.80;;;17.80;99.90;;;;;;6188110;23;20404;-45
2021/07/21 04:26:53;;;;;;;12.50;7.57;;;17.80;99.90;;;;;;6187473;23;20417;-48
2021/07/21 04:29:23;;;;;;;10.17;6.87;;;17.90;99.90;;;;;;6186878;23;20432;-46
2021/07/21 04:31:51;;;;;;;13.43;7.20;;;17.90;99.90;;;;;;6187662;23;20455;-51
2021/07/21 04:34:21;;;;;;;12.10;7.53;;;18.00;99.90;;;;;;6189622;23;20416;-46
2021/07/21 04:36:47;;;;;;;11.60;7.33;;;18.00;99.90;;;;;;6187724;23;20412;-48
2021/07/21 04:39:18;;;;;;;10.63;7.70;;;18.00;99.90;;;;;;6187666;23;20405;-46
2021/07/21 04:41:47;;;;;;;11.90;7.43;;;18.10;99.90;;;;;;6187474;23;20428;-45
2021/07/21 04:44:14;;;;;;;11.90;7.73;;;18.20;99.90;;;;;;6188097;23;20466;-48
2021/07/21 04:46:42;;;;;;;9.47;7.00;;;18.20;99.90;;;;;;6187946;23;20436;-51
2021/07/21 04:49:11;;;;;;;8.50;6.53;;;18.20;99.90;;;;;;6187976;23;20546;-50
2021/07/21 04:51:40;;;;;;;10.13;6.60;;;18.20;99.90;;;;;;6189677;23;20408;-48
2021/07/21 04:54:07;;;;;;;9.80;7.33;;;18.30;99.90;;;;;;6189588;23;20400;-47
2021/07/21 04:56:34;;;;;;;14.00;7.97;;;18.30;99.90;;;;;;6190356;23;20471;-45
2021/07/21 04:59:01;;;;;;;8.80;6.43;;;18.30;99.90;;;;;;6190127;23;20397;-45
2021/07/21 05:01:28;;;;;;;9.43;6.33;;;18.30;99.90;;;;;;6189430;23;20412;-50
2021/07/21 05:03:55;;;;;;;11.10;7.33;;;18.30;99.90;;;;;;6189322;23;20408;-49
2021/07/21 05:06:22;;;;;;;10.30;6.20;;;18.30;99.90;;;;;;6189704;23;20480;-48
2021/07/21 05:08:50;;;;;;;14.37;7.63;;;18.30;99.90;;;;;;6188050;23;20855;-48
2021/07/21 05:11:17;;;;;;;10.97;7.77;;;18.30;99.90;;;;;;6187925;23;20428;-45
2021/07/21 05:13:44;;;;;;;11.03;7.03;;;18.30;99.90;;;;;;6187770;23;20427;-48
2021/07/21 05:16:11;;;;;;;12.50;6.83;;;18.30;99.90;;;;;;6187840;23;20401;-49
2021/07/21 05:18:38;;;;;;;11.13;6.37;;;18.30;99.90;;;;;;6187824;23;20401;-52
2021/07/21 05:21:08;;;;;;;11.03;6.20;;;18.30;99.90;;;;;;6188445;23;20740;-51
2021/07/21 05:23:36;;;;;;;12.50;7.00;;;18.30;99.90;;;;;;6188172;23;20480;-47
2021/07/21 05:26:05;;;;;;;10.40;6.97;;;18.20;99.90;;;;;;6188749;23;20917;-45
2021/07/21 05:28:34;;;;;;;9.20;7.40;;;18.30;99.90;;;;;;6187342;23;20445;-47
2021/07/21 05:31:01;;;;;;;10.07;6.50;;;18.30;99.90;;;;;;6187439;23;20440;-50
2021/07/21 05:33:28;;;;;;;10.07;7.33;;;18.30;99.90;;;;;;6187466;23;20421;-46
2021/07/21 05:35:54;;;;;;;8.43;6.20;;;18.30;99.90;;;;;;6187747;23;20396;-49
2021/07/21 05:38:21;;;;;;;10.30;6.70;;;18.40;99.90;;;;;;6187372;23;20409;-49
2021/07/21 05:40:48;;;;;;;10.13;7.70;;;18.40;99.90;;;;;;6187490;23;20431;-47
2021/07/21 05:43:18;;;;;;;8.87;6.83;;;18.50;99.90;;;;;;6187667;23;20528;-49
2021/07/21 05:45:44;;;;;;;12.43;7.60;;;18.60;99.90;;;;;;6187700;23;20697;-47
2021/07/21 05:48:13;;;;;;;13.10;7.63;;;18.60;99.90;;;;;;6187501;23;20405;-45
2021/07/21 05:50:40;;;;;;;12.10;8.47;;;18.60;99.90;;;;;;6187815;23;20915;-48
2021/07/21 05:53:06;;;;;;;14.87;8.00;;;18.70;99.90;;;;;;6189158;23;20860;-46
2021/07/21 05:55:33;;;;;;;10.80;7.80;;;18.70;99.90;;;;;;6186833;23;20468;-46
2021/07/21 05:58:01;;;;;;;14.67;8.07;;;18.70;99.90;;;;;;6187392;23;20487;-48
2021/07/21 06:00:29;;;;;;;12.10;7.00;;;18.70;99.90;;;;;;6200652;23;20490;-52
2021/07/21 06:02:55;;;;;;;10.23;7.43;;;18.70;99.90;;;;;;6188731;23;20417;-52
2021/07/21 06:05:22;;;;;;;11.07;7.37;;;18.80;99.90;;;;;;6187268;23;20444;-49
2021/07/21 06:07:48;;;;;;;9.90;7.90;;;18.90;99.90;;;;;;6187458;23;20420;-51
2021/07/21 06:10:16;;;;;;;12.37;6.47;;;19.00;99.90;;;;;;6187333;23;20405;-46
2021/07/21 06:12:43;;;;;;;9.37;6.87;;;19.10;99.90;;;;;;6187541;23;20417;-49
2021/07/21 06:15:10;;;;;;;10.47;6.97;;;19.20;99.90;;;;;;6187754;23;20397;-46
2021/07/21 06:17:39;;;;;;;12.17;7.83;;;19.30;99.90;;;;;;6195938;23;20423;-55
2021/07/21 06:20:08;;;;;;;8.53;6.50;;;19.30;99.90;;;;;;6192606;23;20405;-57
2021/07/21 06:22:38;;;;;;;13.77;7.03;;;19.30;99.90;;;;;;6188714;23;20405;-47
2021/07/21 06:25:08;;;;;;;9.63;6.83;;;19.30;99.90;;;;;;6187113;23;20421;-50
2021/07/21 06:27:34;;;;;;;11.20;7.77;;;19.50;99.90;;;;;;6186962;23;20416;-47
2021/07/21 06:30:06;;;;;;;9.93;6.77;;;19.60;99.90;;;;;;6187063;23;20523;-48
2021/07/21 06:32:34;;;;;;;9.00;6.17;;;19.80;99.90;;;;;;6187263;23;20464;-44
2021/07/21 06:35:03;;;;;;;10.40;6.17;;;19.80;99.90;;;;;;6185543;23;20421;-49
2021/07/21 06:37:30;;;;;;;10.87;6.37;;;20.00;99.90;;;;;;6186930;23;20409;-48
2021/07/21 06:39:56;;;;;;;10.83;6.67;;;20.10;99.90;;;;;;6187320;23;20860;-48
2021/07/21 06:42:23;;;;;;;9.23;6.13;;;20.30;99.90;;;;;;6187016;23;20807;-48
2021/07/21 06:44:50;;;;;;;8.40;6.43;;;20.40;99.90;;;;;;6186729;23;20852;-51
2021/07/21 06:47:17;;;;;;;9.63;6.60;;;20.60;99.90;;;;;;6187730;23;20436;-52
2021/07/21 06:49:44;;;;;;;12.10;7.23;;;20.80;99.90;;;;;;6187172;23;20424;-48
2021/07/21 06:52:12;;;;;;;10.47;6.80;;;21.00;99.90;;;;;;6184762;23;20480;-46
2021/07/21 06:54:39;;;;;;;11.80;6.00;;;21.20;99.90;;;;;;6186061;23;20420;-52
2021/07/21 06:57:05;;;;;;;12.17;6.80;;;21.30;99.90;;;;;;6191769;23;20456;-48
2021/07/21 06:59:32;;;;;;;8.57;6.70;;;21.40;99.90;;;;;;6192098;23;20439;-47
2021/07/21 07:01:59;;;;;;;7.77;6.37;;;21.40;99.90;;;;;;6199577;23;20400;-50
2021/07/21 07:04:26;;;;;;;9.33;6.40;;;21.50;99.90;;;;;;6203058;23;20478;-50
2021/07/21 07:06:52;;;;;;;11.33;6.73;;;21.60;99.90;;;;;;6187165;23;20449;-49
2021/07/21 07:09:20;;;;;;;11.60;7.20;;;21.80;99.90;;;;;;6187016;23;20401;-50
2021/07/21 07:11:47;;;;;;;7.50;6.37;;;21.90;99.90;;;;;;6189581;23;20428;-47
2021/07/21 07:14:14;;;;;;;8.77;5.90;;;22.10;99.90;;;;;;6187138;23;20425;-47
2021/07/21 07:16:41;;;;;;;7.80;6.13;;;22.30;99.90;;;;;;6187486;23;20723;-48
2021/07/21 07:19:08;;;;;;;9.30;5.90;;;22.40;99.90;;;;;;6186880;23;20405;-47
2021/07/21 07:21:34;;;;;;;8.33;6.00;;;22.50;99.90;;;;;;6186654;23;20425;-46
2021/07/21 07:24:01;;;;;;;6.50;5.47;;;22.70;99.90;;;;;;6186822;23;20424;-46
2021/07/21 07:26:29;;;;;;;7.47;5.90;;;23.10;99.90;;;;;;6186708;23;20507;-50
2021/07/21 07:28:56;;;;;;;8.30;6.53;;;23.50;99.90;;;;;;6186556;23;20409;-49
2021/07/21 07:31:24;;;;;;;8.53;6.30;;;23.80;99.90;;;;;;6166460;23;20421;-51
2021/07/21 07:33:52;;;;;;;15.30;7.00;;;24.50;99.90;;;;;;6161548;23;20413;-44
2021/07/21 07:36:18;;;;;;;9.53;6.30;;;25.20;99.90;;;;;;6157606;23;20402;-45
2021/07/21 07:38:45;;;;;;;6.57;5.40;;;25.90;99.90;;;;;;6157424;23;20456;-48
2021/07/21 07:41:12;;;;;;;8.10;5.80;;;27.00;99.90;;;;;;6157114;23;20489;-46
2021/07/21 07:43:40;;;;;;;7.90;6.80;;;28.20;98.00;;;;;;6157359;23;20402;-49
2021/07/21 07:46:10;;;;;;;7.00;6.00;;;29.40;92.80;;;;;;6157351;23;20759;-48
2021/07/21 07:48:37;;;;;;;6.13;5.53;;;29.80;88.60;;;;;;6157062;23;20402;-50
2021/07/21 07:51:03;;;;;;;7.47;5.93;;;29.40;84.40;;;;;;6157298;23;20884;-49
2021/07/21 07:53:30;;;;;;;6.60;6.00;;;28.60;83.80;;;;;;6155919;23;20417;-48
2021/07/21 07:55:57;;;;;;;5.40;4.90;;;28.00;86.10;;;;;;6157038;23;20425;-45
2021/07/21 07:58:24;;;;;;;5.83;5.23;;;27.60;85.50;;;;;;6157193;23;20492;-48
2021/07/21 08:00:54;;;;;;;5.90;5.00;;;27.20;86.60;;;;;;6157548;23;20461;-47
2021/07/21 08:03:21;;;;;;;9.37;5.60;;;26.90;89.20;;;;;;6157287;23;20390;-51
2021/07/21 08:05:49;;;;;;;6.63;5.40;;;26.80;90.80;;;;;;6157155;23;20441;-49
2021/07/21 08:08:16;;;;;;;5.87;5.27;;;26.90;91.30;;;;;;6156907;23;20508;-50
2021/07/21 08:10:42;;;;;;;6.07;5.13;;;26.70;91.90;;;;;;6157498;23;20422;-49
2021/07/21 08:13:09;;;;;;;8.83;5.33;;;26.20;92.50;;;;;;6157233;23;20401;-51
2021/07/21 08:15:36;;;;;;;9.13;5.47;;;25.80;94.00;;;;;;6157241;23;20428;-52
2021/07/21 08:18:04;;;;;;;7.97;5.90;;;25.60;95.00;;;;;;6156786;23;20871;-51
2021/07/21 08:20:31;;;;;;;7.40;5.73;;;25.40;95.70;;;;;;6156961;23;20939;-47
2021/07/21 08:22:57;;;;;;;7.70;5.87;;;25.30;95.50;;;;;;6156742;23;20856;-49
2021/07/21 08:25:24;;;;;;;7.90;6.10;;;25.20;95.60;;;;;;6158947;23;20413;-49
2021/07/21 08:27:52;;;;;;;7.77;6.20;;;24.90;96.20;;;;;;6159432;23;20445;-50
2021/07/21 08:30:19;;;;;;;8.30;6.63;;;24.60;97.80;;;;;;6175505;23;20436;-50
2021/07/21 08:32:48;;;;;;;9.23;5.20;;;24.50;98.50;;;;;;6188281;23;20471;-50
2021/07/21 08:35:21;;;;;;;7.27;5.20;;;24.40;99.20;;;;;;6188733;23;20874;-50
2021/07/21 08:37:48;;;;;;;7.77;4.53;;;24.20;99.30;;;;;;6188447;23;20871;-50
2021/07/21 08:40:15;;;;;;;6.87;5.63;;;24.20;99.90;;;;;;6185957;23;20404;-48
2021/07/21 08:42:42;;;;;;;6.57;5.80;;;24.20;99.90;;;;;;6196404;23;20705;-49
2021/07/21 08:45:11;;;;;;;7.00;5.87;;;24.30;99.90;;;;;;6187280;23;20482;-50
2021/07/21 08:47:39;;;;;;;6.17;5.43;;;24.40;99.90;;;;;;6188064;23;20515;-46
2021/07/21 08:50:08;;;;;;;5.43;4.37;;;24.30;99.90;;;;;;6188047;23;20408;-45
2021/07/21 08:52:37;;;;;;;7.20;5.50;;;24.20;99.90;;;;;;6187649;23;20424;-45
2021/07/21 08:55:06;;;;;;;6.27;5.40;;;24.00;99.90;;;;;;6189394;23;20436;-57
2021/07/21 08:57:34;;;;;;;5.73;4.70;;;23.90;99.90;;;;;;6188431;23;20765;-52
2021/07/21 09:00:02;;;;;;;9.33;5.10;;;23.90;99.90;;;;;;6190621;23;20427;-45
2021/07/21 09:02:28;;;;;;;6.80;5.27;;;23.80;99.90;;;;;;6190797;23;20407;-49
2021/07/21 09:04:57;;;;;;;6.13;4.87;;;23.80;99.90;;;;;;6188747;23;20733;-49
2021/07/21 09:07:24;;;;;;;6.67;4.40;;;23.70;99.90;;;;;;6188544;23;20441;-49
2021/07/21 09:09:52;;;;;;;6.73;5.13;;;23.70;99.90;;;;;;6190682;23;20475;-45
2021/07/21 09:12:19;;;;;;;7.63;4.60;;;23.70;99.90;;;;;;6190223;23;20404;-45
2021/07/21 09:14:46;;;;;;;5.20;4.17;;;23.60;99.90;;;;;;6188397;23;20393;-51
2021/07/21 09:17:15;;;;;;;6.13;4.60;;;23.40;99.90;;;;;;6187111;23;20428;-48
2021/07/21 09:19:44;;;;;;;7.50;4.97;;;23.20;99.90;;;;;;6187118;23;20416;-48
2021/07/21 09:22:16;;;;;;;5.30;4.80;;;23.10;99.90;;;;;;6187486;23;20463;-49
2021/07/21 09:24:43;;;;;;;9.47;5.50;;;22.90;99.90;;;;;;6187976;23;20404;-44
2021/07/21 09:27:12;;;;;;;7.53;5.43;;;22.80;99.90;;;;;;6187439;23;20447;-53
2021/07/21 09:29:41;;;;;;;6.93;5.30;;;22.70;99.90;;;;;;6189232;23;20467;-49
2021/07/21 09:32:09;;;;;;;9.80;5.87;;;22.70;99.90;;;;;;6188199;23;20405;-49
2021/07/21 09:34:36;;;;;;;6.27;5.13;;;22.80;99.90;;;;;;6187613;23;20504;-46
2021/07/21 09:37:05;;;;;;;6.33;4.87;;;23.00;99.90;;;;;;6192029;23;20408;-45
2021/07/21 09:39:37;;;;;;;10.83;5.30;;;23.00;99.90;;;;;;6187418;23;20752;-43
2021/07/21 09:42:05;;;;;;;5.60;4.47;;;23.20;99.90;;;;;;6187302;23;20409;-46
2021/07/21 09:44:34;;;;;;;6.60;5.00;;;23.20;99.90;;;;;;6186928;23;20400;-47
2021/07/21 09:47:12;;;;;;;5.83;4.43;;;23.10;99.90;;;;;;6187370;23;20437;-48
2021/07/21 09:49:39;;;;;;;6.50;5.20;;;22.80;99.90;;;;;;6187353;23;20463;-46
2021/07/21 09:52:21;;;;;;;6.10;4.60;;;22.60;99.90;;;;;;6188250;23;20801;-48
2021/07/21 09:55:08;;;;;;;4.50;3.50;;;22.50;99.90;;;;;;6186716;23;20409;-46
2021/07/21 09:57:36;;;;;;;9.63;3.77;;;22.60;99.90;;;;;;6187251;23;20408;-46
2021/07/21 10:00:20;;;;;;;3.37;3.03;;;22.90;99.90;;;;;;6187793;23;20475;-50
2021/07/21 10:02:48;;;;;;;4.90;3.27;;;23.10;99.90;;;;;;6186964;23;20425;-46
2021/07/21 10:05:14;;;;;;;4.30;3.43;;;23.40;99.90;;;;;;6187135;23;20415;-45
2021/07/21 10:07:50;;;;;;;4.30;3.27;;;23.70;99.90;;;;;;6186639;23;20499;-47
2021/07/21 10:10:19;;;;;;;5.47;3.70;;;23.80;99.90;;;;;;6187173;23;20443;-51
2021/07/21 10:12:57;;;;;;;4.87;3.90;;;24.20;99.90;;;;;;6187087;23;20707;-51
2021/07/21 10:15:26;;;;;;;3.63;2.63;;;24.40;99.90;;;;;;6187501;23;20492;-45
2021/07/21 10:18:10;;;;;;;6.50;3.67;;;24.50;99.80;;;;;;6188631;23;20494;-48
2021/07/21 10:20:37;;;;;;;4.40;3.33;;;24.70;99.30;;;;;;6187242;23;20393;-46
2021/07/21 10:23:05;;;;;;;3.63;3.17;;;25.00;98.90;;;;;;6187398;23;20472;-48
2021/07/21 10:25:32;;;;;;;5.40;3.50;;;26.10;96.20;;;;;;6187573;23;20408;-47
2021/07/21 10:28:00;;;;;;;7.80;3.10;;;27.10;92.60;;;;;;6186764;23;20452;-45
2021/07/21 10:30:30;;;;;;;5.90;3.23;;;28.10;87.90;;;;;;6187057;23;20498;-45
2021/07/21 10:32:57;;;;;;;5.50;3.40;;;28.60;81.10;;;;;;6187514;23;20400;-47
2021/07/21 10:35:25;;;;;;;5.90;3.90;;;28.90;75.10;;;;;;6187126;23;20431;-46
2021/07/21 10:37:53;;;;;;;7.40;4.80;;;28.50;74.80;;;;;;6188424;23;20397;-47
2021/07/21 10:40:21;;;;;;;5.70;4.73;;;28.20;75.90;;;;;;6187607;23;20444;-47
2021/07/21 10:42:51;;;;;;;3.70;3.30;;;27.70;77.30;;;;;;6187084;23;20413;-50
2021/07/21 10:45:20;;;;;;;3.60;3.27;;;27.30;77.50;;;;;;6188097;23;20851;-49
2021/07/21 10:47:49;;;;;;;5.03;3.93;;;26.70;79.40;;;;;;6192980;23;20441;-52
2021/07/21 10:50:31;;;;;;;4.03;3.60;;;26.20;79.10;;;;;;6193194;23;20467;-47
2021/07/21 10:53:47;;;;;;;7.87;4.33;;;25.70;80.40;;;;;;6187130;23;20389;-48
2021/07/21 10:59:21;;;;;;;3.37;3.07;;;25.60;81.80;;;;;;6187815;23;20377;-48
2021/07/21 11:01:50;;;;;;;4.10;3.47;;;25.60;81.60;;;;;;6187552;23;20405;-47
2021/07/21 11:04:19;;;;;;;4.70;3.17;;;25.50;83.00;;;;;;6187238;23;20491;-46
2021/07/21 11:06:47;;;;;;;4.70;3.43;;;25.30;83.00;;;;;;6186408;23;20457;-47
2021/07/21 11:09:25;;;;;;;7.20;3.90;;;25.10;82.80;;;;;;6186515;23;20413;-50
2021/07/21 11:11:57;;;;;;;7.60;3.17;;;25.00;83.00;;;;;;6186730;23;20389;-48
2021/07/21 11:14:25;;;;;;;4.03;3.50;;;25.00;83.70;;;;;;6187287;23;20487;-46
2021/07/21 11:16:53;;;;;;;4.93;3.37;;;25.10;84.10;;;;;;6187167;23;20451;-47
2021/07/21 11:19:46;;;;;;;8.10;4.40;;;25.10;84.80;;;;;;6186836;23;20933;-46
2021/07/21 11:22:24;;;;;;;11.50;6.00;;;25.10;85.50;;;;;;6186721;23;20423;-49
2021/07/21 11:25:07;;;;;;;6.23;3.47;;;25.00;87.50;;;;;;6186888;23;20409;-48
2021/07/21 11:27:42;;;;;;;38.13;34.43;;;24.90;89.30;;;;;;6186850;23;20875;-49
2021/07/21 11:30:47;;;;;;;11.33;8.50;;;24.90;90.60;;;;;;6186352;23;20431;-45
2021/07/21 11:33:48;;;;;;;7.37;5.73;;;24.70;89.60;;;;;;6186648;23;20400;-45
2021/07/21 11:36:49;;;;;;;13.40;4.67;;;24.30;90.20;;;;;;6187380;23;20393;-48
2021/07/21 11:39:36;;;;;;;18.83;10.73;;;24.00;91.20;;;;;;6186565;23;20888;-50
2021/07/21 11:42:04;;;;;;;5.00;4.50;;;23.80;92.10;;;;;;6186617;23;20747;-45
2021/07/21 11:44:33;;;;;;;5.63;3.43;;;23.80;91.90;;;;;;6186342;23;20405;-50
2021/07/21 11:47:02;;;;;;;4.87;3.93;;;23.70;92.50;;;;;;6186938;23;20444;-49
2021/07/21 11:49:30;;;;;;;3.30;2.63;;;23.50;93.30;;;;;;6186875;23;20744;-49
2021/07/21 11:51:59;;;;;;;7.17;5.43;;;23.40;93.90;;;;;;6187053;23;20405;-46
2021/07/21 11:54:28;;;;;;;3.27;2.90;;;23.40;94.90;;;;;;6186816;23;20413;-47
2021/07/21 11:56:56;;;;;;;3.93;3.30;;;23.40;95.20;;;;;;6187145;23;20400;-49
2021/07/21 11:59:28;;;;;;;3.53;2.90;;;23.30;95.30;;;;;;6186230;23;20676;-46
2021/07/21 12:02:09;;;;;;;6.80;3.83;;;23.10;96.20;;;;;;6187099;23;20428;-49
2021/07/21 12:04:42;;;;;;;5.43;4.17;;;23.00;97.30;;;;;;6186362;23;20405;-48
2021/07/21 12:07:12;;;;;;;3.63;2.93;;;23.00;97.40;;;;;;6186614;23;20428;-47
2021/07/21 12:09:41;;;;;;;4.30;3.10;;;23.00;98.40;;;;;;6187139;23;20384;-47
2021/07/21 12:12:10;;;;;;;3.47;2.80;;;23.00;98.90;;;;;;6187121;23;20460;-46
2021/07/21 12:14:38;;;;;;;3.57;2.83;;;22.90;99.60;;;;;;6186970;23;20413;-52
2021/07/21 12:17:08;;;;;;;5.17;3.27;;;22.80;99.90;;;;;;6188620;23;20407;-48
2021/07/21 12:19:35;;;;;;;8.63;3.53;;;22.90;99.90;;;;;;6187169;23;20698;-51
2021/07/21 12:22:07;;;;;;;3.63;2.80;;;22.80;99.90;;;;;;6187220;23;20405;-47
2021/07/21 12:24:41;;;;;;;5.60;3.23;;;22.90;99.90;;;;;;6187824;23;20420;-50
2021/07/21 12:27:09;;;;;;;5.80;3.00;;;22.90;99.90;;;;;;6186960;23;20440;-49
2021/07/21 12:29:37;;;;;;;3.93;3.40;;;22.80;99.90;;;;;;6188021;23;20436;-48
2021/07/21 12:32:05;;;;;;;9.20;3.00;;;22.70;99.90;;;;;;6186919;23;20472;-49
2021/07/21 12:34:32;;;;;;;3.40;2.70;;;22.70;99.90;;;;;;6186906;23;20421;-47
2021/07/21 12:36:59;;;;;;;3.63;2.80;;;22.60;99.90;;;;;;6186974;23;20440;-48
2021/07/21 12:39:28;;;;;;;3.63;2.63;;;22.50;99.90;;;;;;6186791;23;20409;-44
2021/07/21 12:42:06;;;;;;;3.77;2.80;;;22.50;99.90;;;;;;6187203;23;20417;-47
2021/07/21 12:44:37;;;;;;;6.03;3.47;;;22.50;99.90;;;;;;6188878;23;20385;-46
2021/07/21 12:47:18;;;;;;;4.30;2.80;;;22.50;99.90;;;;;;6187323;23;20401;-49
2021/07/21 12:49:47;;;;;;;3.27;2.60;;;22.50;99.90;;;;;;6186332;23;20412;-49
2021/07/21 12:52:17;;;;;;;3.20;2.90;;;22.60;99.90;;;;;;6187366;23;20440;-46
2021/07/21 12:54:48;;;;;;;3.00;2.40;;;22.70;99.90;;;;;;6187181;23;20701;-48
2021/07/21 12:57:32;;;;;;;4.30;2.77;;;22.80;99.90;;;;;;6186419;23;20420;-48
2021/07/21 13:00:03;;;;;;;3.13;2.50;;;22.90;99.90;;;;;;6186688;23;20393;-50
2021/07/21 13:02:30;;;;;;;5.20;3.70;;;22.90;99.90;;;;;;6187020;23;20393;-50
2021/07/21 13:04:57;;;;;;;5.57;3.50;;;23.00;99.90;;;;;;6186973;23;20432;-47